Ashburn, VA

5:46 PM EST on January 29, 2015 (GMT -0500)
One Loudoun | Change Station
CLOSE
Current Station
Personal Weather Station
Location: Ashburn, VA
Elevation: 236 ft
Nearby Weather Stations
Active Advisory: Winter Weather Advisory Active Notice: Public Information Statement

Elev 236 ft 39.05 °N, 77.46 °W | Updated 9 minutes ago

Ice Pellets
Ice Pellets
32.5 °F
Feels Like 32 °F
N
2.0
Wind Variable Wind from SE

Today
High -- | Low -- °F
--% Chance of Precip.
Yesterday
High -- | Low -- °F
Precip. -- in
7:19 AM 5:27 PM
Waxing Gibbous, 77% visible
Pressure 30.08 in
Visibility 10.0 miles
Clouds Overcast 5500 ft
Windchill 32 °F
Dew Point 26 °F
Humidity 77%
Rainfall 0.00 in
Snow Depth Not available.
UV 0.0 out of 12
Pollen .30 out of 12
Air Quality Not available.
Flu Activity Not available.
METAR KIAD 292152Z 14006KT 10SM OVC055 00/M04 A3007 RMK AO2 RAE48PLE34 SLP185 P0005 T00001044

More Conditions Fewer Conditions

Pressure 30.08 in
Visibility 10.0 miles
Clouds Overcast 5500 ft
Windchill 32 °F
Dew Point 26 °F
Humidity 77%
Rainfall 0.00 in
Snow Depth Not available.
UV 0.0 out of 12
Pollen .30 out of 12
Air Quality Not available.
Flu Activity Not available.
METAR KIAD 292152Z 14006KT 10SM OVC055 00/M04 A3007 RMK AO2 RAE48PLE34 SLP185 P0005 T00001044

More Conditions Fewer Conditions

10-Day Weather Forecast

Almanac

Astronomy

Jan. 29, 2015 Rise Set
Actual Time
Civil Twilight
Nautical Twilight
Astronomical Twilight
Moon
Length of Visible Light
Length of Day
Tomorrow will be .
, % of the Moon is Illuminated

Today's Extremes

State Highs State Lows

Community

WunderPhotos

Upload Photos

1,791,635 photos uploaded!

WunderBlogs® & News

Nearby

Air Quality

  Air Quality AQ Index Pollutant
Not available.

Snow Depth

Station Depth Elevation

Earthquake Activity

City Distance Mag. Time & Date
Minimum magnitude displayed is 2.5.

Coastal Water Temperatures

Place Temperature

Nearby Weather Stations